sensor_id;sensor_type;location;lat;lon;timestamp;pressure;altitude;pressure_sealevel;temperature;humidity
35224;BME280;21367;51.930;8.112;2023-04-23T00:00:27;100151.31;;;12.81;100.00
35224;BME280;21367;51.930;8.112;2023-04-23T00:05:33;100158.81;;;12.37;100.00
35224;BME280;21367;51.930;8.112;2023-04-23T00:10:38;100165.38;;;11.94;100.00
35224;BME280;21367;51.930;8.112;2023-04-23T00:15:45;100159.44;;;12.28;100.00
35224;BME280;21367;51.930;8.112;2023-04-23T00:20:52;100157.22;;;12.42;100.00
35224;BME280;21367;51.930;8.112;2023-04-23T00:25:55;100157.91;;;12.35;100.00
35224;BME280;21367;51.930;8.112;2023-04-23T00:30:59;100149.72;;;12.51;100.00
35224;BME280;21367;51.930;8.112;2023-04-23T00:36:07;100155.59;;;12.80;100.00
35224;BME280;21367;51.930;8.112;2023-04-23T00:41:11;100156.38;;;12.41;100.00
35224;BME280;21367;51.930;8.112;2023-04-23T00:46:17;100151.59;;;12.57;100.00
35224;BME280;21367;51.930;8.112;2023-04-23T00:51:24;100149.81;;;12.54;100.00
35224;BME280;21367;51.930;8.112;2023-04-23T00:56:28;100145.31;;;12.47;100.00
35224;BME280;21367;51.930;8.112;2023-04-23T01:01:32;100142.38;;;12.32;100.00
35224;BME280;21367;51.930;8.112;2023-04-23T01:06:39;100136.59;;;12.09;100.00
35224;BME280;21367;51.930;8.112;2023-04-23T01:11:43;100156.59;;;11.86;100.00
35224;BME280;21367;51.930;8.112;2023-04-23T01:16:49;100157.53;;;11.89;100.00
35224;BME280;21367;51.930;8.112;2023-04-23T01:21:56;100163.31;;;11.82;100.00
35224;BME280;21367;51.930;8.112;2023-04-23T01:27:04;100171.56;;;11.70;100.00
35224;BME280;21367;51.930;8.112;2023-04-23T01:32:08;100162.38;;;11.21;100.00
35224;BME280;21367;51.930;8.112;2023-04-23T01:37:12;100181.53;;;11.31;100.00
35224;BME280;21367;51.930;8.112;2023-04-23T01:42:20;100188.84;;;11.46;100.00
35224;BME280;21367;51.930;8.112;2023-04-23T01:47:25;100188.66;;;11.40;100.00
35224;BME280;21367;51.930;8.112;2023-04-23T01:52:29;100185.34;;;11.15;100.00
35224;BME280;21367;51.930;8.112;2023-04-23T01:57:36;100183.72;;;11.46;100.00
35224;BME280;21367;51.930;8.112;2023-04-23T02:02:41;100186.06;;;11.38;100.00
35224;BME280;21367;51.930;8.112;2023-04-23T02:07:49;100178.81;;;11.53;100.00
35224;BME280;21367;51.930;8.112;2023-04-23T02:12:56;100174.47;;;11.24;100.00
35224;BME280;21367;51.930;8.112;2023-04-23T02:18:00;100176.16;;;11.50;100.00
35224;BME280;21367;51.930;8.112;2023-04-23T02:23:04;100184.53;;;11.45;100.00
35224;BME280;21367;51.930;8.112;2023-04-23T02:28:10;100189.88;;;11.51;100.00
35224;BME280;21367;51.930;8.112;2023-04-23T02:33:15;100201.03;;;11.23;100.00
35224;BME280;21367;51.930;8.112;2023-04-23T02:38:19;100185.03;;;11.04;100.00
35224;BME280;21367;51.930;8.112;2023-04-23T02:43:26;100178.84;;;11.26;100.00
35224;BME280;21367;51.930;8.112;2023-04-23T02:48:29;100182.72;;;10.59;100.00
35224;BME280;21367;51.930;8.112;2023-04-23T02:53:33;100177.22;;;11.30;100.00
35224;BME280;21367;51.930;8.112;2023-04-23T02:58:40;100189.72;;;11.18;100.00
35224;BME280;21367;51.930;8.112;2023-04-23T03:03:44;100191.19;;;11.09;100.00
35224;BME280;21367;51.930;8.112;2023-04-23T03:08:48;100199.38;;;10.98;100.00
35224;BME280;21367;51.930;8.112;2023-04-23T03:13:54;100189.28;;;11.04;100.00
35224;BME280;21367;51.930;8.112;2023-04-23T03:18:58;100197.59;;;10.70;100.00
35224;BME280;21367;51.930;8.112;2023-04-23T03:24:03;100183.16;;;10.73;100.00
35224;BME280;21367;51.930;8.112;2023-04-23T03:29:09;100181.19;;;10.92;100.00
35224;BME280;21367;51.930;8.112;2023-04-23T03:34:13;100187.19;;;10.92;100.00
35224;BME280;21367;51.930;8.112;2023-04-23T03:39:18;100178.75;;;10.96;100.00
35224;BME280;21367;51.930;8.112;2023-04-23T03:44:30;100183.75;;;10.92;100.00
35224;BME280;21367;51.930;8.112;2023-04-23T03:49:34;100190.09;;;10.76;100.00
35224;BME280;21367;51.930;8.112;2023-04-23T03:54:38;100186.66;;;10.75;100.00
35224;BME280;21367;51.930;8.112;2023-04-23T03:59:50;100181.03;;;10.87;100.00
35224;BME280;21367;51.930;8.112;2023-04-23T04:04:54;100183.06;;;10.70;100.00
35224;BME280;21367;51.930;8.112;2023-04-23T04:09:58;100181.22;;;10.66;100.00
35224;BME280;21367;51.930;8.112;2023-04-23T04:15:06;100189.63;;;10.62;100.00
35224;BME280;21367;51.930;8.112;2023-04-23T04:20:11;100187.88;;;10.61;100.00
35224;BME280;21367;51.930;8.112;2023-04-23T04:25:14;100179.91;;;10.28;100.00
35224;BME280;21367;51.930;8.112;2023-04-23T04:30:21;100169.81;;;10.32;100.00
35224;BME280;21367;51.930;8.112;2023-04-23T04:35:26;100169.47;;;10.25;100.00
35224;BME280;21367;51.930;8.112;2023-04-23T04:40:30;100160.72;;;10.42;100.00
35224;BME280;21367;51.930;8.112;2023-04-23T04:45:36;100174.22;;;10.62;100.00
35224;BME280;21367;51.930;8.112;2023-04-23T04:50:40;100170.56;;;10.55;100.00
35224;BME280;21367;51.930;8.112;2023-04-23T04:55:43;100184.81;;;10.46;100.00
35224;BME280;21367;51.930;8.112;2023-04-23T05:00:50;100175.81;;;10.58;100.00
35224;BME280;21367;51.930;8.112;2023-04-23T05:05:55;100178.75;;;10.69;100.00
35224;BME280;21367;51.930;8.112;2023-04-23T05:10:59;100169.97;;;10.62;100.00
35224;BME280;21367;51.930;8.112;2023-04-23T05:16:06;100182.03;;;10.65;100.00
35224;BME280;21367;51.930;8.112;2023-04-23T05:21:10;100180.13;;;10.85;100.00
35224;BME280;21367;51.930;8.112;2023-04-23T05:26:14;100177.91;;;10.20;100.00
35224;BME280;21367;51.930;8.112;2023-04-23T05:31:20;100171.94;;;10.71;100.00
35224;BME280;21367;51.930;8.112;2023-04-23T05:36:24;100173.94;;;10.80;100.00
35224;BME280;21367;51.930;8.112;2023-04-23T05:41:28;100163.03;;;10.87;100.00
35224;BME280;21367;51.930;8.112;2023-04-23T05:46:34;100160.28;;;10.06;100.00
35224;BME280;21367;51.930;8.112;2023-04-23T05:51:38;100163.13;;;10.37;100.00
35224;BME280;21367;51.930;8.112;2023-04-23T05:56:42;100167.06;;;10.04;100.00
35224;BME280;21367;51.930;8.112;2023-04-23T06:01:48;100170.28;;;10.22;100.00
35224;BME280;21367;51.930;8.112;2023-04-23T06:06:52;100158.34;;;10.48;100.00
35224;BME280;21367;51.930;8.112;2023-04-23T06:11:57;100155.03;;;10.27;100.00
35224;BME280;21367;51.930;8.112;2023-04-23T06:17:16;100152.00;;;10.64;100.00
35224;BME280;21367;51.930;8.112;2023-04-23T06:22:25;100164.41;;;10.76;100.00
35224;BME280;21367;51.930;8.112;2023-04-23T06:27:28;100161.81;;;11.03;100.00
35224;BME280;21367;51.930;8.112;2023-04-23T06:32:40;100150.03;;;11.68;100.00
35224;BME280;21367;51.930;8.112;2023-04-23T06:37:44;100145.59;;;11.32;99.63
35224;BME280;21367;51.930;8.112;2023-04-23T06:42:48;100138.56;;;11.00;100.00
35224;BME280;21367;51.930;8.112;2023-04-23T06:47:55;100139.28;;;11.23;100.00
35224;BME280;21367;51.930;8.112;2023-04-23T06:52:59;100131.00;;;11.33;100.00
35224;BME280;21367;51.930;8.112;2023-04-23T06:58:03;100121.78;;;11.40;99.65
35224;BME280;21367;51.930;8.112;2023-04-23T07:03:10;100128.50;;;11.65;99.16
35224;BME280;21367;51.930;8.112;2023-04-23T07:08:13;100127.97;;;11.76;99.49
35224;BME280;21367;51.930;8.112;2023-04-23T07:13:18;100115.72;;;11.98;95.80
35224;BME280;21367;51.930;8.112;2023-04-23T07:18:25;100112.72;;;12.47;87.81
35224;BME280;21367;51.930;8.112;2023-04-23T07:23:29;100107.59;;;12.85;85.27
35224;BME280;21367;51.930;8.112;2023-04-23T07:28:42;100099.38;;;13.03;85.19
35224;BME280;21367;51.930;8.112;2023-04-23T07:33:50;100108.19;;;13.52;84.75
35224;BME280;21367;51.930;8.112;2023-04-23T07:38:53;100101.31;;;13.51;80.41
35224;BME280;21367;51.930;8.112;2023-04-23T07:43:57;100108.13;;;13.49;80.33
35224;BME280;21367;51.930;8.112;2023-04-23T07:49:04;100086.75;;;13.55;80.00
35224;BME280;21367;51.930;8.112;2023-04-23T07:54:08;100082.47;;;14.04;78.26
35224;BME280;21367;51.930;8.112;2023-04-23T07:59:13;100089.91;;;14.32;77.50
35224;BME280;21367;51.930;8.112;2023-04-23T08:04:19;100091.13;;;14.53;78.56
35224;BME280;21367;51.930;8.112;2023-04-23T08:09:23;100086.34;;;15.43;74.91
35224;BME280;21367;51.930;8.112;2023-04-23T08:14:27;100085.56;;;15.48;73.09
35224;BME280;21367;51.930;8.112;2023-04-23T08:19:33;100095.69;;;15.32;73.53
35224;BME280;21367;51.930;8.112;2023-04-23T08:24:37;100086.28;;;15.38;74.94
35224;BME280;21367;51.930;8.112;2023-04-23T08:29:41;100076.34;;;15.70;73.88
35224;BME280;21367;51.930;8.112;2023-04-23T08:34:47;100080.31;;;15.44;73.98
35224;BME280;21367;51.930;8.112;2023-04-23T08:39:51;100081.88;;;15.31;74.96
35224;BME280;21367;51.930;8.112;2023-04-23T08:44:55;100082.41;;;15.07;78.22
35224;BME280;21367;51.930;8.112;2023-04-23T08:50:03;100081.25;;;15.50;75.72
35224;BME280;21367;51.930;8.112;2023-04-23T08:55:08;100065.34;;;15.94;73.36
35224;BME280;21367;51.930;8.112;2023-04-23T09:00:16;100072.41;;;16.09;72.78
35224;BME280;21367;51.930;8.112;2023-04-23T09:05:23;100062.72;;;16.94;71.82
35224;BME280;21367;51.930;8.112;2023-04-23T09:10:27;100062.66;;;16.89;71.88
35224;BME280;21367;51.930;8.112;2023-04-23T09:15:31;100059.81;;;16.52;73.19
35224;BME280;21367;51.930;8.112;2023-04-23T09:20:44;100053.28;;;17.09;70.54
35224;BME280;21367;51.930;8.112;2023-04-23T09:25:48;100053.09;;;16.79;71.10
35224;BME280;21367;51.930;8.112;2023-04-23T09:30:52;100039.31;;;16.91;70.79
35224;BME280;21367;51.930;8.112;2023-04-23T09:36:04;100039.38;;;17.04;70.51
35224;BME280;21367;51.930;8.112;2023-04-23T09:41:21;100039.31;;;16.89;71.84
35224;BME280;21367;51.930;8.112;2023-04-23T09:46:32;100032.25;;;16.73;71.06
35224;BME280;21367;51.930;8.112;2023-04-23T09:51:39;100031.69;;;17.24;69.07
35224;BME280;21367;51.930;8.112;2023-04-23T09:56:48;100027.50;;;17.58;68.87
35224;BME280;21367;51.930;8.112;2023-04-23T10:01:53;100019.59;;;17.25;68.30
35224;BME280;21367;51.930;8.112;2023-04-23T10:07:01;100005.88;;;17.79;66.85
35224;BME280;21367;51.930;8.112;2023-04-23T10:12:08;100009.34;;;17.89;66.42
35224;BME280;21367;51.930;8.112;2023-04-23T10:17:13;100009.28;;;17.52;65.56
35224;BME280;21367;51.930;8.112;2023-04-23T10:22:20;100009.38;;;18.04;64.24
35224;BME280;21367;51.930;8.112;2023-04-23T10:27:27;100007.63;;;17.91;64.56
35224;BME280;21367;51.930;8.112;2023-04-23T10:32:33;100014.50;;;17.63;65.68
35224;BME280;21367;51.930;8.112;2023-04-23T10:37:47;100009.38;;;18.04;65.02
35224;BME280;21367;51.930;8.112;2023-04-23T10:42:56;100004.13;;;18.57;63.25
35224;BME280;21367;51.930;8.112;2023-04-23T10:48:04;99998.91;;;18.77;62.15
35224;BME280;21367;51.930;8.112;2023-04-23T10:53:16;100002.44;;;18.19;63.59
35224;BME280;21367;51.930;8.112;2023-04-23T10:58:21;99992.53;;;19.48;60.20
35224;BME280;21367;51.930;8.112;2023-04-23T11:03:29;99979.84;;;20.21;57.99
35224;BME280;21367;51.930;8.112;2023-04-23T11:08:36;99974.16;;;19.73;56.84
35224;BME280;21367;51.930;8.112;2023-04-23T11:13:50;99974.84;;;19.95;58.04
35224;BME280;21367;51.930;8.112;2023-04-23T11:19:02;99973.31;;;19.64;59.01
35224;BME280;21367;51.930;8.112;2023-04-23T11:24:12;99971.22;;;18.23;61.84
35224;BME280;21367;51.930;8.112;2023-04-23T11:29:18;99969.47;;;18.44;65.49
35224;BME280;21367;51.930;8.112;2023-04-23T11:34:23;99959.91;;;18.57;65.36
35224;BME280;21367;51.930;8.112;2023-04-23T11:39:57;99959.06;;;18.29;62.70
35224;BME280;21367;51.930;8.112;2023-04-23T11:45:14;99953.81;;;18.62;64.25
35224;BME280;21367;51.930;8.112;2023-04-23T11:50:23;99950.69;;;20.67;61.46
35224;BME280;21367;51.930;8.112;2023-04-23T11:55:30;99943.28;;;21.02;59.89
35224;BME280;21367;51.930;8.112;2023-04-23T12:00:33;99940.16;;;20.76;59.71
35224;BME280;21367;51.930;8.112;2023-04-23T12:05:40;99921.56;;;21.62;55.72
35224;BME280;21367;51.930;8.112;2023-04-23T12:10:50;99915.34;;;21.69;56.54
35224;BME280;21367;51.930;8.112;2023-04-23T12:15:56;99910.91;;;21.16;55.78
35224;BME280;21367;51.930;8.112;2023-04-23T12:21:04;99907.28;;;19.64;58.15
35224;BME280;21367;51.930;8.112;2023-04-23T12:26:13;99901.81;;;19.95;59.54
35224;BME280;21367;51.930;8.112;2023-04-23T12:31:18;99905.28;;;19.95;60.17
35224;BME280;21367;51.930;8.112;2023-04-23T12:36:26;99901.13;;;19.76;56.73
35224;BME280;21367;51.930;8.112;2023-04-23T12:41:34;99897.91;;;19.38;57.64
35224;BME280;21367;51.930;8.112;2023-04-23T12:46:38;99881.44;;;20.30;53.85
35224;BME280;21367;51.930;8.112;2023-04-23T12:51:42;99880.34;;;20.54;53.80
35224;BME280;21367;51.930;8.112;2023-04-23T12:56:49;99869.81;;;21.80;51.65
35224;BME280;21367;51.930;8.112;2023-04-23T13:01:53;99857.34;;;21.43;55.09
35224;BME280;21367;51.930;8.112;2023-04-23T13:06:57;99861.81;;;20.74;51.83
35224;BME280;21367;51.930;8.112;2023-04-23T13:12:06;99847.28;;;20.53;53.75
35224;BME280;21367;51.930;8.112;2023-04-23T13:17:10;99833.75;;;20.90;52.24
35224;BME280;21367;51.930;8.112;2023-04-23T13:22:13;99813.25;;;21.20;51.29
35224;BME280;21367;51.930;8.112;2023-04-23T13:27:20;99805.34;;;22.25;48.02
35224;BME280;21367;51.930;8.112;2023-04-23T13:32:24;99811.25;;;22.35;46.04
35224;BME280;21367;51.930;8.112;2023-04-23T13:37:31;99810.63;;;20.61;48.80
35224;BME280;21367;51.930;8.112;2023-04-23T13:42:39;99856.63;;;18.66;54.43
35224;BME280;21367;51.930;8.112;2023-04-23T13:47:43;99846.94;;;16.22;67.05
35224;BME280;21367;51.930;8.112;2023-04-23T13:52:47;99853.03;;;14.39;79.88
35224;BME280;21367;51.930;8.112;2023-04-23T13:57:54;99853.56;;;14.14;81.54
35224;BME280;21367;51.930;8.112;2023-04-23T14:02:58;99820.31;;;14.43;80.73
35224;BME280;21367;51.930;8.112;2023-04-23T14:08:03;99796.94;;;16.49;78.56
35224;BME280;21367;51.930;8.112;2023-04-23T14:13:09;99779.75;;;17.53;73.64
35224;BME280;21367;51.930;8.112;2023-04-23T14:18:14;99780.47;;;18.27;71.17
35224;BME280;21367;51.930;8.112;2023-04-23T14:23:42;99775.88;;;18.79;67.72
35224;BME280;21367;51.930;8.112;2023-04-23T14:28:55;99769.56;;;19.10;66.51
35224;BME280;21367;51.930;8.112;2023-04-23T14:34:00;99757.78;;;18.53;66.71
35224;BME280;21367;51.930;8.112;2023-04-23T14:39:04;99757.50;;;18.99;67.79
35224;BME280;21367;51.930;8.112;2023-04-23T14:44:13;99748.53;;;19.33;69.05
35224;BME280;21367;51.930;8.112;2023-04-23T14:49:20;99741.84;;;19.03;69.35
35224;BME280;21367;51.930;8.112;2023-04-23T14:54:27;99732.59;;;19.67;64.74
35224;BME280;21367;51.930;8.112;2023-04-23T14:59:37;99717.34;;;20.09;63.88
35224;BME280;21367;51.930;8.112;2023-04-23T15:04:44;99716.06;;;19.71;64.89
35224;BME280;21367;51.930;8.112;2023-04-23T15:09:48;99703.91;;;19.67;67.09
35224;BME280;21367;51.930;8.112;2023-04-23T15:14:54;99696.06;;;19.72;65.61
35224;BME280;21367;51.930;8.112;2023-04-23T15:19:58;99673.75;;;18.38;66.69
35224;BME280;21367;51.930;8.112;2023-04-23T15:25:04;99672.88;;;18.38;68.40
35224;BME280;21367;51.930;8.112;2023-04-23T15:30:13;99669.72;;;19.13;67.07
35224;BME280;21367;51.930;8.112;2023-04-23T15:35:17;99665.03;;;18.42;66.95
35224;BME280;21367;51.930;8.112;2023-04-23T15:40:21;99662.59;;;18.21;69.67
35224;BME280;21367;51.930;8.112;2023-04-23T15:45:28;99664.63;;;17.41;72.74
35224;BME280;21367;51.930;8.112;2023-04-23T15:50:32;99656.00;;;16.33;75.13
35224;BME280;21367;51.930;8.112;2023-04-23T15:55:37;99656.91;;;16.76;73.22
35224;BME280;21367;51.930;8.112;2023-04-23T16:00:44;99643.91;;;17.07;75.57
35224;BME280;21367;51.930;8.112;2023-04-23T16:05:48;99632.66;;;16.53;78.55
35224;BME280;21367;51.930;8.112;2023-04-23T16:10:52;99634.38;;;17.07;76.62
35224;BME280;21367;51.930;8.112;2023-04-23T16:16:00;99630.09;;;16.80;75.48
35224;BME280;21367;51.930;8.112;2023-04-23T16:21:05;99627.47;;;16.54;76.67
35224;BME280;21367;51.930;8.112;2023-04-23T16:26:09;99614.50;;;16.21;76.07
35224;BME280;21367;51.930;8.112;2023-04-23T16:31:15;99604.06;;;16.01;78.01
35224;BME280;21367;51.930;8.112;2023-04-23T16:36:19;99598.06;;;16.32;76.73
35224;BME280;21367;51.930;8.112;2023-04-23T16:41:23;99594.59;;;16.99;73.98
35224;BME280;21367;51.930;8.112;2023-04-23T16:46:29;99580.78;;;16.54;75.03
35224;BME280;21367;51.930;8.112;2023-04-23T16:51:33;99584.25;;;16.49;76.70
35224;BME280;21367;51.930;8.112;2023-04-23T16:56:37;99590.28;;;16.60;76.74
35224;BME280;21367;51.930;8.112;2023-04-23T17:01:44;99602.38;;;16.09;78.82
35224;BME280;21367;51.930;8.112;2023-04-23T17:06:48;99611.03;;;16.54;77.17
35224;BME280;21367;51.930;8.112;2023-04-23T17:11:52;99624.84;;;16.17;76.87
35224;BME280;21367;51.930;8.112;2023-04-23T17:17:00;99616.94;;;15.71;81.65
35224;BME280;21367;51.930;8.112;2023-04-23T17:22:05;99603.94;;;15.64;82.42
35224;BME280;21367;51.930;8.112;2023-04-23T17:27:10;99598.81;;;15.76;80.54
35224;BME280;21367;51.930;8.112;2023-04-23T17:32:17;99590.84;;;15.35;80.69
35224;BME280;21367;51.930;8.112;2023-04-23T17:37:21;99580.69;;;15.67;80.80
35224;BME280;21367;51.930;8.112;2023-04-23T17:42:26;99575.44;;;15.62;80.69
35224;BME280;21367;51.930;8.112;2023-04-23T17:47:36;99560.81;;;15.72;79.64
35224;BME280;21367;51.930;8.112;2023-04-23T17:52:40;99566.00;;;15.73;79.98
35224;BME280;21367;51.930;8.112;2023-04-23T17:57:45;99560.81;;;15.78;80.19
35224;BME280;21367;51.930;8.112;2023-04-23T18:02:52;99554.78;;;15.76;82.47
35224;BME280;21367;51.930;8.112;2023-04-23T18:07:58;99550.31;;;15.40;86.71
35224;BME280;21367;51.930;8.112;2023-04-23T18:13:03;99535.69;;;15.57;83.47
35224;BME280;21367;51.930;8.112;2023-04-23T18:18:15;99531.38;;;15.50;87.19
35224;BME280;21367;51.930;8.112;2023-04-23T18:23:19;99533.97;;;15.48;88.84
35224;BME280;21367;51.930;8.112;2023-04-23T18:28:25;99540.81;;;15.37;88.20
35224;BME280;21367;51.930;8.112;2023-04-23T18:33:36;99559.69;;;15.12;86.65
35224;BME280;21367;51.930;8.112;2023-04-23T18:38:44;99584.66;;;15.02;80.99
35224;BME280;21367;51.930;8.112;2023-04-23T18:43:49;99605.22;;;14.80;81.98
35224;BME280;21367;51.930;8.112;2023-04-23T18:48:59;99641.91;;;14.41;89.11
35224;BME280;21367;51.930;8.112;2023-04-23T18:54:07;99652.69;;;14.00;88.29
35224;BME280;21367;51.930;8.112;2023-04-23T18:59:14;99655.22;;;13.26;91.51
35224;BME280;21367;51.930;8.112;2023-04-23T19:04:25;99635.06;;;13.03;92.98
35224;BME280;21367;51.930;8.112;2023-04-23T19:09:29;99601.63;;;12.53;95.96
35224;BME280;21367;51.930;8.112;2023-04-23T19:14:33;99587.13;;;12.08;100.00
35224;BME280;21367;51.930;8.112;2023-04-23T19:19:40;99593.75;;;12.44;100.00
35224;BME280;21367;51.930;8.112;2023-04-23T19:24:44;99578.19;;;12.38;100.00
35224;BME280;21367;51.930;8.112;2023-04-23T19:29:51;99571.69;;;12.08;100.00
35224;BME280;21367;51.930;8.112;2023-04-23T19:34:58;99557.63;;;11.89;100.00
35224;BME280;21367;51.930;8.112;2023-04-23T19:40:03;99557.03;;;12.06;100.00
35224;BME280;21367;51.930;8.112;2023-04-23T19:45:08;99548.56;;;12.11;100.00
35224;BME280;21367;51.930;8.112;2023-04-23T19:50:17;99532.66;;;12.35;100.00
35224;BME280;21367;51.930;8.112;2023-04-23T19:55:22;99527.09;;;11.65;100.00
35224;BME280;21367;51.930;8.112;2023-04-23T20:00:26;99525.25;;;12.03;100.00
35224;BME280;21367;51.930;8.112;2023-04-23T20:05:34;99514.69;;;11.90;100.00
35224;BME280;21367;51.930;8.112;2023-04-23T20:10:40;99512.44;;;12.08;100.00
35224;BME280;21367;51.930;8.112;2023-04-23T20:15:44;99509.00;;;12.08;100.00
35224;BME280;21367;51.930;8.112;2023-04-23T20:20:50;99512.34;;;12.02;100.00
35224;BME280;21367;51.930;8.112;2023-04-23T20:25:54;99505.81;;;11.74;100.00
35224;BME280;21367;51.930;8.112;2023-04-23T20:30:58;99506.06;;;11.86;100.00
35224;BME280;21367;51.930;8.112;2023-04-23T20:36:05;99495.81;;;11.88;100.00
35224;BME280;21367;51.930;8.112;2023-04-23T20:41:09;99500.75;;;11.78;100.00
35224;BME280;21367;51.930;8.112;2023-04-23T20:46:13;99501.47;;;11.71;100.00
35224;BME280;21367;51.930;8.112;2023-04-23T20:51:21;99499.97;;;11.84;100.00
35224;BME280;21367;51.930;8.112;2023-04-23T20:56:25;99489.75;;;11.86;100.00
35224;BME280;21367;51.930;8.112;2023-04-23T21:01:29;99473.28;;;11.77;100.00
35224;BME280;21367;51.930;8.112;2023-04-23T21:06:35;99477.06;;;11.49;100.00
35224;BME280;21367;51.930;8.112;2023-04-23T21:11:39;99473.91;;;11.63;100.00
35224;BME280;21367;51.930;8.112;2023-04-23T21:16:43;99470.78;;;11.82;100.00
35224;BME280;21367;51.930;8.112;2023-04-23T21:21:50;99471.09;;;11.97;100.00
35224;BME280;21367;51.930;8.112;2023-04-23T21:26:54;99455.72;;;12.03;100.00
35224;BME280;21367;51.930;8.112;2023-04-23T21:31:58;99451.50;;;12.07;100.00
35224;BME280;21367;51.930;8.112;2023-04-23T21:37:05;99446.47;;;12.16;100.00
35224;BME280;21367;51.930;8.112;2023-04-23T21:42:10;99450.97;;;12.30;100.00
35224;BME280;21367;51.930;8.112;2023-04-23T21:47:16;99444.81;;;12.21;100.00
35224;BME280;21367;51.930;8.112;2023-04-23T21:52:23;99449.06;;;12.18;100.00
35224;BME280;21367;51.930;8.112;2023-04-23T21:57:26;99450.03;;;12.24;100.00
35224;BME280;21367;51.930;8.112;2023-04-23T22:02:32;99452.44;;;12.14;99.25
35224;BME280;21367;51.930;8.112;2023-04-23T22:07:42;99457.66;;;12.18;98.18
35224;BME280;21367;51.930;8.112;2023-04-23T22:12:48;99444.53;;;12.01;98.89
35224;BME280;21367;51.930;8.112;2023-04-23T22:17:52;99455.19;;;12.24;96.92
35224;BME280;21367;51.930;8.112;2023-04-23T22:23:03;99454.31;;;12.22;94.59
35224;BME280;21367;51.930;8.112;2023-04-23T22:28:06;99447.41;;;12.20;94.55
35224;BME280;21367;51.930;8.112;2023-04-23T22:33:12;99454.31;;;12.24;93.46
35224;BME280;21367;51.930;8.112;2023-04-23T22:38:18;99457.75;;;12.23;93.26
35224;BME280;21367;51.930;8.112;2023-04-23T22:43:22;99444.72;;;12.14;93.52
35224;BME280;21367;51.930;8.112;2023-04-23T22:48:26;99452.56;;;12.21;93.37
35224;BME280;21367;51.930;8.112;2023-04-23T22:53:33;99457.66;;;12.18;91.67
35224;BME280;21367;51.930;8.112;2023-04-23T22:58:38;99455.94;;;12.19;92.28
35224;BME280;21367;51.930;8.112;2023-04-23T23:03:41;99461.22;;;12.28;90.11
35224;BME280;21367;51.930;8.112;2023-04-23T23:08:49;99468.88;;;12.22;88.47
35224;BME280;21367;51.930;8.112;2023-04-23T23:13:53;99464.53;;;12.18;87.50
35224;BME280;21367;51.930;8.112;2023-04-23T23:18:58;99467.94;;;12.17;86.31
35224;BME280;21367;51.930;8.112;2023-04-23T23:24:05;99472.50;;;11.81;84.77
35224;BME280;21367;51.930;8.112;2023-04-23T23:29:09;99472.31;;;11.71;83.71
35224;BME280;21367;51.930;8.112;2023-04-23T23:34:13;99468.16;;;11.79;80.08
35224;BME280;21367;51.930;8.112;2023-04-23T23:39:20;99471.44;;;11.70;79.56
35224;BME280;21367;51.930;8.112;2023-04-23T23:44:24;99473.72;;;11.55;79.98
35224;BME280;21367;51.930;8.112;2023-04-23T23:49:28;99469.22;;;11.43;80.41
35224;BME280;21367;51.930;8.112;2023-04-23T23:54:35;99480.75;;;11.17;79.91
35224;BME280;21367;51.930;8.112;2023-04-23T23:59:39;99474.19;;;11.34;79.57
